Overview Statistics Trail Chart Weather Telemetry Raw packets
 

This is the latest recevied weather packets stored in our database for station/object W0AKY-13. If no packets are shown the sender has not sent any weather packets the latest 10 day(s).

<< 42 43 44 45 46 47 48 >>
Time Temp. Humidity Pressure Rain* Wind** Luminosity Snow
1788312805 30° C 61% 1012.2 hPa 0 mm - 0 W/m² -
1788312500 30.56° C 60% 1012.4 hPa 0 mm - 0 W/m² -
1788312196 30.56° C 60% 1012.4 hPa 0 mm - 0 W/m² -
1788311891 30.56° C 60% 1012.2 hPa 0 mm - 0 W/m² -
1788311586 30.56° C 60% 1012.3 hPa 0 mm - 0 W/m² -
1788311285 30.56° C 60% 1012.3 hPa 0 mm - 0 W/m² -
1788310981 30° C 60% 1012.5 hPa 0 mm - 1 W/m² -
1788310679 30.56° C 60% 1012.5 hPa 0 mm - 1 W/m² -
1788310374 30.56° C 59% 1012.5 hPa 0 mm - 2 W/m² -
1788310075 31.11° C 59% 1012.6 hPa 0 mm - 2 W/m² -
1788309770 31.11° C 59% 1012.4 hPa 0 mm - 4 W/m² -
1788309465 31.67° C 59% 1012.4 hPa 0 mm - 5 W/m² -
1788309161 31.67° C 56% 1012.4 hPa 0 mm - 7 W/m² -
1788308856 31.67° C 57% 1012.6 hPa 0 mm - 10 W/m² -
1788308555 32.22° C 57% 1012.5 hPa 0 mm - 12 W/m² -
1788308252 32.22° C 56% 1012.8 hPa 0 mm - 13 W/m² -
1788307951 32.22° C 54% 1012.7 hPa 0 mm - 15 W/m² -
1788307651 32.78° C 55% 1012.6 hPa 0 mm - 17 W/m² -
1788307346 32.78° C 55% 1012.7 hPa 0 mm - 19 W/m² -
1788297914 37.78° C 40% 1013.7 hPa 0 mm - 363 W/m² -
1788297611 37.78° C 40% 1013.7 hPa 0 mm - 363 W/m² -
1788297306 37.78° C 41% 1013.3 hPa 0 mm - 369 W/m² -
1788297002 37.78° C 39% 1013.6 hPa 0 mm - 380 W/m² -
1788296697 37.78° C 39% 1013.6 hPa 0 mm - 393 W/m² -
1788296394 38.33° C 40% 1013.6 hPa 0 mm - 399 W/m² -

* Rain latest hour (hover to see other rain measurements)
** Current wind speed in m/s (hover to see current wind gust speed)